Time;durP1;ratioP1;P1;durP2;ratioP2;P2;SDS_P1;SDS_P2;PMS_P1;PMS_P2;Temp;Humidity;BMP_temperature;BMP_pressure;BME280_temperature;BME280_humidity;BME280_pressure;Samples;Min_cycle;Max_cycle;Signal;HPM_P1;HPM_P2
2021/10/17 00:01:39;;;;;;;12.50;6.63;;;9.80;82.20;;;;;;5083002;28;20638;-42
2021/10/17 00:04:06;;;;;;;10.07;5.57;;;9.80;82.30;;;;;;5080940;28;20485;-42
2021/10/17 00:06:33;;;;;;;6.50;4.93;;;9.80;82.10;;;;;;5082343;28;20491;-42
2021/10/17 00:09:00;;;;;;;6.87;4.77;;;9.80;82.30;;;;;;5062553;28;20468;-42
2021/10/17 00:11:27;;;;;;;6.30;5.00;;;9.70;82.30;;;;;;5078734;28;20453;-42
2021/10/17 00:13:53;;;;;;;8.20;5.50;;;9.70;82.20;;;;;;5077964;28;20468;-42
2021/10/17 00:16:20;;;;;;;7.10;6.13;;;9.70;82.10;;;;;;5060526;28;20492;-42
2021/10/17 00:18:47;;;;;;;6.30;4.97;;;9.70;81.90;;;;;;5079207;28;21002;-42
2021/10/17 00:21:14;;;;;;;9.93;6.23;;;9.80;81.80;;;;;;5076797;28;20453;-42
2021/10/17 00:23:41;;;;;;;6.80;5.10;;;9.70;81.70;;;;;;5078028;28;20505;-42
2021/10/17 00:26:07;;;;;;;8.20;4.93;;;9.70;81.90;;;;;;5080867;28;20842;-42
2021/10/17 00:28:34;;;;;;;8.33;5.90;;;9.70;81.80;;;;;;5077144;28;21056;-42
2021/10/17 00:31:01;;;;;;;11.00;6.03;;;9.70;81.60;;;;;;5075075;28;20450;-42
2021/10/17 00:33:28;;;;;;;7.17;6.10;;;9.60;81.60;;;;;;5076369;28;20489;-42
2021/10/17 00:35:55;;;;;;;5.87;5.27;;;9.60;81.80;;;;;;5080517;28;20460;-42
2021/10/17 00:38:21;;;;;;;7.87;5.60;;;9.50;81.80;;;;;;5060292;28;20454;-42
2021/10/17 00:40:51;;;;;;;14.73;7.17;;;9.50;81.80;;;;;;5077953;28;20457;-42
2021/10/17 00:43:18;;;;;;;9.00;6.37;;;9.50;81.70;;;;;;5077417;28;20457;-42
2021/10/17 00:45:45;;;;;;;8.60;5.80;;;9.40;81.60;;;;;;5075520;28;20464;-42
2021/10/17 00:48:12;;;;;;;10.83;6.10;;;9.40;81.60;;;;;;5080408;28;20461;-42
2021/10/17 00:50:38;;;;;;;7.83;6.37;;;9.40;81.50;;;;;;5060201;28;20459;-42
2021/10/17 00:53:05;;;;;;;11.73;6.13;;;9.40;81.60;;;;;;5073759;28;20454;-43
2021/10/17 00:55:32;;;;;;;9.77;6.90;;;9.40;81.40;;;;;;5075804;28;20465;-42
2021/10/17 00:58:18;;;;;;;9.90;7.20;;;9.30;81.50;;;;;;5076209;28;21028;-42
2021/10/17 01:00:45;;;;;;;7.60;6.70;;;9.20;81.50;;;;;;5075542;28;20464;-42
2021/10/17 01:03:12;;;;;;;11.33;7.00;;;9.20;81.60;;;;;;5066323;28;20757;-42
2021/10/17 01:05:39;;;;;;;12.10;7.10;;;9.10;81.50;;;;;;5057133;28;20995;-42
2021/10/17 01:08:06;;;;;;;11.07;7.70;;;9.10;81.70;;;;;;5078651;28;20457;-42
2021/10/17 01:10:33;;;;;;;10.27;7.53;;;9.10;81.80;;;;;;5078834;28;20465;-42
2021/10/17 01:12:59;;;;;;;11.50;7.00;;;9.00;82.00;;;;;;5079185;28;20449;-42
2021/10/17 01:15:26;;;;;;;8.87;6.07;;;9.00;82.10;;;;;;5077762;28;20448;-42
2021/10/17 01:17:53;;;;;;;6.60;5.90;;;9.00;82.10;;;;;;5077801;28;20502;-42
2021/10/17 01:20:20;;;;;;;6.47;5.20;;;9.00;82.10;;;;;;5077633;28;20825;-42
2021/10/17 01:22:46;;;;;;;6.93;5.90;;;9.00;82.20;;;;;;5058222;28;20475;-42
2021/10/17 01:25:13;;;;;;;6.00;5.20;;;8.90;82.30;;;;;;5078272;28;20458;-42
2021/10/17 01:27:40;;;;;;;6.80;6.17;;;8.90;82.30;;;;;;5076934;28;20478;-42
2021/10/17 01:30:09;;;;;;;8.57;5.03;;;8.90;82.40;;;;;;5060869;28;20449;-42
2021/10/17 01:32:36;;;;;;;6.10;4.93;;;8.90;82.40;;;;;;5075526;28;20511;-42
2021/10/17 01:35:03;;;;;;;10.20;5.37;;;8.90;82.30;;;;;;5076998;28;20477;-42
2021/10/17 01:37:30;;;;;;;10.20;5.40;;;8.90;82.40;;;;;;5081539;28;20576;-42
2021/10/17 01:39:56;;;;;;;6.17;5.40;;;8.90;82.30;;;;;;5081479;28;20482;-42
2021/10/17 01:42:23;;;;;;;8.80;5.40;;;8.90;82.30;;;;;;5078626;28;20437;-42
2021/10/17 01:44:51;;;;;;;8.50;5.70;;;8.90;82.30;;;;;;5082377;28;21114;-42
2021/10/17 01:47:17;;;;;;;8.03;5.07;;;8.90;82.40;;;;;;5076401;28;21231;-42
2021/10/17 01:49:44;;;;;;;7.77;4.87;;;8.90;82.40;;;;;;5077867;28;20510;-42
2021/10/17 01:52:11;;;;;;;7.40;5.13;;;8.90;82.40;;;;;;5059454;28;20972;-42
2021/10/17 01:54:38;;;;;;;6.87;5.47;;;8.90;82.50;;;;;;5075515;28;20856;-42
2021/10/17 01:57:05;;;;;;;7.20;5.53;;;8.90;82.50;;;;;;5076547;28;20478;-42
2021/10/17 01:59:31;;;;;;;8.23;5.53;;;8.90;82.50;;;;;;5077305;28;20459;-42
2021/10/17 02:01:58;;;;;;;6.60;5.40;;;8.90;82.50;;;;;;5062883;28;20815;-42
2021/10/17 02:04:25;;;;;;;6.37;4.93;;;8.90;82.50;;;;;;5079509;28;21040;-42
2021/10/17 02:06:52;;;;;;;7.83;5.80;;;9.00;82.50;;;;;;5070578;28;20467;-42
2021/10/17 02:09:19;;;;;;;7.77;5.30;;;9.00;82.60;;;;;;5077752;28;20453;-42
2021/10/17 02:11:45;;;;;;;6.90;5.80;;;9.00;82.60;;;;;;5075712;28;20469;-44
2021/10/17 02:14:12;;;;;;;8.37;5.30;;;9.00;82.60;;;;;;5079552;28;20444;-44
2021/10/17 02:16:39;;;;;;;9.37;5.00;;;9.00;82.60;;;;;;5077796;28;20458;-44
2021/10/17 02:19:05;;;;;;;17.90;5.70;;;8.90;82.60;;;;;;5081275;28;20883;-44
2021/10/17 02:21:32;;;;;;;8.30;5.60;;;8.90;82.70;;;;;;5076641;28;20860;-44
2021/10/17 02:23:59;;;;;;;10.07;7.10;;;8.90;82.60;;;;;;5080234;28;20541;-44
2021/10/17 02:26:26;;;;;;;8.40;5.10;;;8.90;82.60;;;;;;5084901;28;20473;-44
2021/10/17 02:28:52;;;;;;;6.00;5.10;;;8.90;82.60;;;;;;5079782;28;20836;-44
2021/10/17 02:31:19;;;;;;;7.07;5.00;;;8.90;82.60;;;;;;5079547;28;20461;-44
2021/10/17 02:33:46;;;;;;;6.20;4.93;;;8.90;82.40;;;;;;5082929;28;20981;-44
2021/10/17 02:36:13;;;;;;;6.10;5.30;;;8.90;82.40;;;;;;5078998;28;20467;-44
2021/10/17 02:38:40;;;;;;;6.50;4.93;;;8.90;82.00;;;;;;5081014;28;20572;-44
2021/10/17 02:41:07;;;;;;;10.60;5.50;;;8.90;82.10;;;;;;5083446;28;20532;-44
2021/10/17 02:43:33;;;;;;;6.53;5.10;;;8.80;82.10;;;;;;5082194;28;20464;-44
2021/10/17 02:46:01;;;;;;;9.23;5.03;;;8.90;82.10;;;;;;5080141;28;20981;-44
2021/10/17 02:48:27;;;;;;;6.47;4.97;;;8.90;81.80;;;;;;5080909;28;20829;-44
2021/10/17 02:50:54;;;;;;;6.07;4.60;;;8.90;81.60;;;;;;5079148;28;20471;-44
2021/10/17 02:53:21;;;;;;;6.53;5.10;;;8.90;81.50;;;;;;5078504;28;20468;-42
2021/10/17 02:55:48;;;;;;;5.63;4.10;;;8.90;81.20;;;;;;5059469;28;20466;-42
2021/10/17 02:58:14;;;;;;;8.20;4.83;;;8.80;81.30;;;;;;5059342;28;20481;-42
2021/10/17 03:00:42;;;;;;;8.23;5.77;;;8.80;81.40;;;;;;5080950;28;20812;-42
2021/10/17 03:03:08;;;;;;;5.33;4.83;;;8.70;81.40;;;;;;5061014;28;20497;-42
2021/10/17 03:05:35;;;;;;;9.03;4.30;;;8.70;81.70;;;;;;5075535;28;20484;-42
2021/10/17 03:08:02;;;;;;;9.80;4.60;;;8.60;81.80;;;;;;5076330;28;20452;-42
2021/10/17 03:10:29;;;;;;;8.40;4.87;;;8.60;81.70;;;;;;5078841;28;20446;-42
2021/10/17 03:12:55;;;;;;;5.30;4.13;;;8.70;81.40;;;;;;5060239;28;20527;-42
2021/10/17 03:15:22;;;;;;;6.37;4.60;;;8.70;80.90;;;;;;5056056;28;20462;-42
2021/10/17 03:17:49;;;;;;;8.70;5.43;;;8.70;81.00;;;;;;5080567;28;20507;-42
2021/10/17 03:20:16;;;;;;;7.90;4.83;;;8.60;80.80;;;;;;5077020;28;20801;-42
2021/10/17 03:22:43;;;;;;;5.20;4.70;;;8.60;81.10;;;;;;5060827;28;20463;-42
2021/10/17 03:25:09;;;;;;;8.00;4.37;;;8.50;81.30;;;;;;5046975;28;20467;-42
2021/10/17 03:27:36;;;;;;;4.37;3.97;;;8.50;81.50;;;;;;5079372;28;20465;-42
2021/10/17 03:30:04;;;;;;;7.67;5.10;;;8.40;81.60;;;;;;5079619;28;20456;-42
2021/10/17 03:32:31;;;;;;;6.27;4.83;;;8.40;81.70;;;;;;5075527;28;20888;-42
2021/10/17 03:34:58;;;;;;;6.73;5.00;;;8.40;81.70;;;;;;5076198;28;20465;-42
2021/10/17 03:37:25;;;;;;;6.97;4.03;;;8.30;81.90;;;;;;5045473;28;20723;-42
2021/10/17 03:39:51;;;;;;;11.40;5.77;;;8.30;82.00;;;;;;5078869;28;20453;-42
2021/10/17 03:42:18;;;;;;;10.13;6.40;;;8.30;82.10;;;;;;5058730;28;20454;-42
2021/10/17 03:44:44;;;;;;;9.07;7.73;;;8.30;82.10;;;;;;5080252;28;20460;-42
2021/10/17 03:47:11;;;;;;;7.83;5.63;;;8.30;82.20;;;;;;5082145;28;20463;-42
2021/10/17 03:49:39;;;;;;;9.00;5.00;;;8.30;82.30;;;;;;5073366;28;20886;-42
2021/10/17 03:52:06;;;;;;;6.17;5.20;;;8.30;82.20;;;;;;5078439;28;20461;-42
2021/10/17 03:54:33;;;;;;;8.80;5.03;;;8.30;82.20;;;;;;5059734;28;20990;-42
2021/10/17 03:56:59;;;;;;;11.37;4.97;;;8.30;82.30;;;;;;5064355;28;20471;-42
2021/10/17 03:59:26;;;;;;;5.37;4.57;;;8.30;82.20;;;;;;5078520;28;20468;-42
2021/10/17 04:01:53;;;;;;;4.80;4.40;;;8.30;82.00;;;;;;5065046;28;20719;-42
2021/10/17 04:04:19;;;;;;;8.03;4.97;;;8.30;82.10;;;;;;5063661;28;20469;-42
2021/10/17 04:06:46;;;;;;;8.47;4.90;;;8.30;82.20;;;;;;5080386;28;20582;-42
2021/10/17 04:09:13;;;;;;;8.70;5.13;;;8.30;82.30;;;;;;5077005;28;20837;-42
2021/10/17 04:11:40;;;;;;;9.07;4.37;;;8.30;82.40;;;;;;5065067;28;20476;-42
2021/10/17 04:14:07;;;;;;;6.53;4.40;;;8.30;82.40;;;;;;5045252;28;20441;-42
2021/10/17 04:16:33;;;;;;;7.60;4.33;;;8.30;82.40;;;;;;5068531;28;20452;-42
2021/10/17 04:19:00;;;;;;;6.03;3.83;;;8.30;82.50;;;;;;5077935;28;20493;-42
2021/10/17 04:21:27;;;;;;;5.50;4.57;;;8.30;82.60;;;;;;5063867;28;20450;-42
2021/10/17 04:23:53;;;;;;;8.03;4.83;;;8.30;82.70;;;;;;5077017;28;20453;-42
2021/10/17 04:26:20;;;;;;;9.30;4.67;;;8.30;82.80;;;;;;5064118;28;20452;-42
2021/10/17 04:28:47;;;;;;;5.73;4.13;;;8.30;82.80;;;;;;5080613;28;20453;-42
2021/10/17 04:31:14;;;;;;;7.00;4.40;;;8.40;82.80;;;;;;5078828;28;20446;-42
2021/10/17 04:33:41;;;;;;;5.17;4.67;;;8.30;82.90;;;;;;5078309;28;20474;-42
2021/10/17 04:36:09;;;;;;;8.43;3.70;;;8.40;83.10;;;;;;5081293;28;20460;-42
2021/10/17 04:38:37;;;;;;;6.37;4.30;;;8.40;83.10;;;;;;5064767;28;20489;-42
2021/10/17 04:41:04;;;;;;;5.90;4.50;;;8.40;82.90;;;;;;5078796;28;20481;-42
2021/10/17 04:43:31;;;;;;;4.90;4.33;;;8.40;82.90;;;;;;5078127;28;20918;-42
2021/10/17 04:45:57;;;;;;;9.57;5.53;;;8.40;82.90;;;;;;5063200;28;20461;-42
2021/10/17 04:48:24;;;;;;;8.63;4.50;;;8.50;83.10;;;;;;5078947;28;20944;-42
2021/10/17 04:50:51;;;;;;;6.63;4.23;;;8.50;83.10;;;;;;5061108;28;20448;-42
2021/10/17 04:53:18;;;;;;;6.43;4.07;;;8.50;83.20;;;;;;5078170;28;20460;-42
2021/10/17 04:55:44;;;;;;;6.10;4.80;;;8.50;83.20;;;;;;5064594;28;20460;-42
2021/10/17 04:58:11;;;;;;;9.70;5.60;;;8.50;83.20;;;;;;5057484;28;20481;-42
2021/10/17 05:00:38;;;;;;;6.33;5.20;;;8.50;83.20;;;;;;5062198;28;20463;-42
2021/10/17 05:03:05;;;;;;;7.13;4.43;;;8.50;83.30;;;;;;5082811;28;20475;-42
2021/10/17 05:05:32;;;;;;;6.50;4.03;;;8.50;83.20;;;;;;5081370;28;20449;-42
2021/10/17 05:08:00;;;;;;;6.63;5.50;;;8.50;83.30;;;;;;5082050;28;20461;-42
2021/10/17 05:10:26;;;;;;;5.93;4.90;;;8.50;83.30;;;;;;5064217;28;20989;-42
2021/10/17 05:12:53;;;;;;;8.47;4.30;;;8.50;83.40;;;;;;5077523;28;20548;-42
2021/10/17 05:15:20;;;;;;;6.00;5.10;;;8.50;83.40;;;;;;5079014;28;20830;-42
2021/10/17 05:17:47;;;;;;;6.67;5.17;;;8.60;83.40;;;;;;5066779;28;20538;-42
2021/10/17 05:20:13;;;;;;;9.23;5.13;;;8.60;83.40;;;;;;5076149;28;20548;-42
2021/10/17 05:22:40;;;;;;;6.03;4.37;;;8.60;83.50;;;;;;5075026;28;20518;-42
2021/10/17 05:25:08;;;;;;;7.83;4.13;;;8.60;83.50;;;;;;5077600;28;20524;-42
2021/10/17 05:27:34;;;;;;;5.53;4.33;;;8.60;83.50;;;;;;5069559;28;20846;-42
2021/10/17 05:30:01;;;;;;;5.83;5.20;;;8.60;83.50;;;;;;5077845;28;20619;-42
2021/10/17 05:32:28;;;;;;;7.83;4.50;;;8.60;83.50;;;;;;5078520;28;20461;-42
2021/10/17 05:34:54;;;;;;;9.50;4.70;;;8.60;83.50;;;;;;5077472;28;20464;-42
2021/10/17 05:37:21;;;;;;;8.47;5.17;;;8.60;83.50;;;;;;5079163;28;20459;-42
2021/10/17 05:39:48;;;;;;;6.40;5.07;;;8.70;83.50;;;;;;5077481;28;20467;-42
2021/10/17 05:42:18;;;;;;;6.70;5.40;;;8.70;83.60;;;;;;5078672;28;20461;-42
2021/10/17 05:44:44;;;;;;;5.67;4.60;;;8.70;83.60;;;;;;5062351;28;20450;-42
2021/10/17 05:47:11;;;;;;;7.60;5.40;;;8.70;83.60;;;;;;5076007;28;20830;-42
2021/10/17 05:49:38;;;;;;;4.67;4.13;;;8.70;83.50;;;;;;5079225;28;20475;-42
2021/10/17 05:52:07;;;;;;;6.67;4.63;;;8.70;83.60;;;;;;5076631;28;20907;-42
2021/10/17 05:54:34;;;;;;;8.00;4.57;;;8.70;83.60;;;;;;5077987;28;20456;-42
2021/10/17 05:57:00;;;;;;;8.77;6.07;;;8.70;83.70;;;;;;5062582;28;20450;-42
2021/10/17 05:59:27;;;;;;;8.63;4.97;;;8.70;83.70;;;;;;5076974;28;20488;-42
2021/10/17 06:01:54;;;;;;;7.97;4.60;;;8.70;83.60;;;;;;5062437;28;20460;-42
2021/10/17 06:04:21;;;;;;;7.37;5.30;;;8.70;83.60;;;;;;5077585;28;20475;-42
2021/10/17 06:06:47;;;;;;;7.37;4.70;;;8.70;83.60;;;;;;5061761;28;20453;-42
2021/10/17 06:09:14;;;;;;;5.20;4.50;;;8.70;83.70;;;;;;5074484;28;20454;-42
2021/10/17 06:11:41;;;;;;;10.37;5.23;;;8.70;83.80;;;;;;5075205;28;20464;-42
2021/10/17 06:14:08;;;;;;;10.93;4.77;;;8.70;83.80;;;;;;5076901;28;20464;-42
2021/10/17 06:16:35;;;;;;;10.20;5.33;;;8.70;83.90;;;;;;5078744;28;20461;-42
2021/10/17 06:19:02;;;;;;;8.93;4.70;;;8.70;83.90;;;;;;5064839;28;20481;-42
2021/10/17 06:21:28;;;;;;;5.73;4.20;;;8.70;83.90;;;;;;5063322;28;20481;-42
2021/10/17 06:23:55;;;;;;;9.50;4.50;;;8.70;84.00;;;;;;5076848;28;20468;-42
2021/10/17 06:26:22;;;;;;;6.87;4.90;;;8.70;84.00;;;;;;5075457;28;20968;-42
2021/10/17 06:28:49;;;;;;;9.33;4.57;;;8.80;84.10;;;;;;5082315;28;20445;-42
2021/10/17 06:31:15;;;;;;;9.00;5.80;;;8.80;84.20;;;;;;5064160;28;20842;-42
2021/10/17 06:33:42;;;;;;;5.83;5.23;;;8.80;84.20;;;;;;5075829;28;20464;-42
2021/10/17 06:36:09;;;;;;;7.30;4.93;;;8.80;84.20;;;;;;5063967;28;20444;-42
2021/10/17 06:38:36;;;;;;;6.77;5.13;;;8.80;84.20;;;;;;5072888;28;20482;-42
2021/10/17 06:41:03;;;;;;;6.13;5.47;;;8.80;84.30;;;;;;5076613;28;20511;-42
2021/10/17 06:43:30;;;;;;;6.37;4.50;;;8.80;84.30;;;;;;5076975;28;20448;-42
2021/10/17 06:45:57;;;;;;;5.60;4.20;;;8.90;84.20;;;;;;5057628;28;20465;-42
2021/10/17 06:48:24;;;;;;;11.33;5.17;;;8.90;84.20;;;;;;5074682;28;20463;-42
2021/10/17 06:50:51;;;;;;;10.50;4.90;;;8.90;84.10;;;;;;5056898;28;20459;-42
2021/10/17 06:53:17;;;;;;;5.07;4.30;;;8.90;84.10;;;;;;5084604;28;20528;-42
2021/10/17 06:55:44;;;;;;;8.03;4.60;;;8.90;84.30;;;;;;5073693;28;20460;-42
2021/10/17 06:58:14;;;;;;;5.27;4.67;;;8.90;84.30;;;;;;5077164;28;21020;-42
2021/10/17 07:00:41;;;;;;;7.67;4.83;;;9.00;84.30;;;;;;5079198;28;20804;-42
2021/10/17 07:03:08;;;;;;;7.67;4.53;;;9.00;84.40;;;;;;5058882;28;20477;-42
2021/10/17 07:05:35;;;;;;;6.87;4.80;;;9.00;84.40;;;;;;5075765;28;20449;-42
2021/10/17 07:08:01;;;;;;;8.50;4.73;;;9.00;84.50;;;;;;5073701;28;20464;-42
2021/10/17 07:10:28;;;;;;;6.83;5.13;;;9.10;84.40;;;;;;5075518;28;21861;-42
2021/10/17 07:12:55;;;;;;;8.20;5.77;;;9.10;84.40;;;;;;5075343;28;20977;-42
2021/10/17 07:15:22;;;;;;;8.60;4.60;;;9.10;84.40;;;;;;5077272;28;20457;-41
2021/10/17 07:17:48;;;;;;;7.63;4.50;;;9.10;84.20;;;;;;5063715;28;20946;-42
2021/10/17 07:20:30;;;;;;;8.33;4.37;;;9.20;84.20;;;;;;5079043;28;20953;-42
2021/10/17 07:22:56;;;;;;;5.80;4.33;;;9.30;84.00;;;;;;5081966;28;20840;-41
2021/10/17 07:25:23;;;;;;;6.90;4.53;;;9.30;83.90;;;;;;5081557;28;20449;-42
2021/10/17 07:27:52;;;;;;;7.47;4.93;;;9.30;83.90;;;;;;5079943;28;20457;-42
2021/10/17 07:30:20;;;;;;;6.40;4.20;;;9.30;83.80;;;;;;5072840;28;20574;-42
2021/10/17 07:32:47;;;;;;;10.47;5.13;;;9.40;83.60;;;;;;5060133;28;20459;-42
2021/10/17 07:35:14;;;;;;;5.87;4.67;;;9.40;83.40;;;;;;5076786;28;20471;-42
2021/10/17 07:37:41;;;;;;;16.13;5.30;;;9.50;83.60;;;;;;5072821;28;20825;-42
2021/10/17 07:40:08;;;;;;;25.07;7.90;;;9.40;83.60;;;;;;5081989;28;21109;-42
2021/10/17 07:42:35;;;;;;;9.93;4.93;;;9.50;83.80;;;;;;5071210;28;20464;-42
2021/10/17 07:45:02;;;;;;;5.90;4.63;;;9.50;83.70;;;;;;5079034;28;20446;-42
2021/10/17 07:47:33;;;;;;;5.50;4.73;;;9.50;83.80;;;;;;5076313;28;20468;-42
2021/10/17 07:50:00;;;;;;;5.33;4.83;;;9.50;83.80;;;;;;5048290;28;20468;-42
2021/10/17 07:52:27;;;;;;;5.50;5.03;;;9.60;83.60;;;;;;5063742;28;20452;-42
2021/10/17 07:54:53;;;;;;;8.33;5.13;;;9.70;83.60;;;;;;5079056;28;20821;-42
2021/10/17 07:57:20;;;;;;;9.00;5.40;;;9.70;83.40;;;;;;5062035;28;20471;-41
2021/10/17 07:59:47;;;;;;;9.53;6.10;;;9.80;83.30;;;;;;5078154;28;20491;-41
2021/10/17 08:02:16;;;;;;;9.10;5.90;;;9.80;83.30;;;;;;5076936;28;20804;-44
2021/10/17 08:04:48;;;;;;;6.43;5.60;;;9.80;83.30;;;;;;5061322;28;20473;-43
2021/10/17 08:07:18;;;;;;;7.13;5.77;;;9.80;83.40;;;;;;5062892;28;20449;-42
2021/10/17 08:09:45;;;;;;;6.30;5.63;;;9.90;83.40;;;;;;5078435;28;20606;-42
2021/10/17 08:12:11;;;;;;;6.63;5.93;;;9.90;83.40;;;;;;5080436;28;20455;-41
2021/10/17 08:14:38;;;;;;;11.20;6.53;;;10.00;83.40;;;;;;5079336;28;20464;-41
2021/10/17 08:17:05;;;;;;;8.03;5.70;;;10.10;83.10;;;;;;5056424;28;20472;-41
2021/10/17 08:19:31;;;;;;;9.03;6.57;;;10.20;82.90;;;;;;5074572;28;20499;-41
2021/10/17 08:21:58;;;;;;;13.80;7.70;;;10.40;82.90;;;;;;5058415;28;20552;-41
2021/10/17 08:24:25;;;;;;;8.77;6.80;;;10.50;82.20;;;;;;5061179;28;20799;-41
2021/10/17 08:26:52;;;;;;;11.10;6.60;;;10.70;81.90;;;;;;5078933;28;20449;-41
2021/10/17 08:29:18;;;;;;;10.20;6.80;;;10.90;80.90;;;;;;5079389;28;20453;-41
2021/10/17 08:31:45;;;;;;;12.20;7.50;;;11.00;79.80;;;;;;5079200;28;20461;-41
2021/10/17 08:34:12;;;;;;;10.97;7.93;;;11.10;78.80;;;;;;5077790;28;20471;-41
2021/10/17 08:36:39;;;;;;;14.27;8.27;;;11.20;78.40;;;;;;5064862;28;20450;-41
2021/10/17 08:39:25;;;;;;;10.77;8.40;;;11.20;78.40;;;;;;5080569;28;20673;-41
2021/10/17 08:41:52;;;;;;;9.13;6.90;;;11.20;78.30;;;;;;5078577;28;20970;-41
2021/10/17 08:44:19;;;;;;;15.40;6.37;;;11.30;77.60;;;;;;5078552;28;20452;-41
2021/10/17 08:46:46;;;;;;;10.10;6.00;;;11.30;77.50;;;;;;5076169;28;20736;-41
2021/10/17 08:49:21;;;;;;;7.87;5.77;;;11.30;76.80;;;;;;5079251;28;20485;-41
2021/10/17 08:51:49;;;;;;;9.50;5.57;;;11.40;76.60;;;;;;5059880;28;20453;-41
2021/10/17 08:54:15;;;;;;;11.80;5.97;;;11.40;77.00;;;;;;5064658;28;20453;-41
2021/10/17 08:56:42;;;;;;;11.70;6.53;;;11.50;77.20;;;;;;5078896;28;20457;-41
2021/10/17 08:59:09;;;;;;;8.43;6.43;;;11.50;77.10;;;;;;5075063;28;20481;-41
2021/10/17 09:01:37;;;;;;;6.30;5.20;;;11.60;77.10;;;;;;5055087;28;20457;-41
2021/10/17 09:04:07;;;;;;;11.07;5.90;;;11.60;76.90;;;;;;5083858;28;20481;-43
2021/10/17 09:06:35;;;;;;;9.00;5.77;;;11.70;76.50;;;;;;5076582;28;20457;-42
2021/10/17 09:09:05;;;;;;;7.00;5.07;;;11.80;76.00;;;;;;5059864;28;20502;-42
2021/10/17 09:11:44;;;;;;;6.80;5.17;;;11.90;75.80;;;;;;5079123;28;20889;-41
2021/10/17 09:14:14;;;;;;;6.37;5.40;;;11.90;75.90;;;;;;5074626;28;20456;-42
2021/10/17 09:16:46;;;;;;;10.60;5.63;;;12.00;75.70;;;;;;5078525;28;20480;-41
2021/10/17 09:19:25;;;;;;;11.03;6.27;;;12.00;75.60;;;;;;5075753;28;21077;-42
2021/10/17 09:21:58;;;;;;;10.70;5.53;;;12.00;75.20;;;;;;5060511;28;20452;-42
2021/10/17 09:24:27;;;;;;;8.10;6.37;;;12.00;75.20;;;;;;5057139;28;20438;-43
2021/10/17 09:27:13;;;;;;;10.60;6.60;;;12.10;75.20;;;;;;5061601;28;20827;-42
2021/10/17 09:29:53;;;;;;;8.80;6.73;;;12.10;75.30;;;;;;5077288;28;20460;-41
2021/10/17 09:32:27;;;;;;;7.03;6.00;;;12.20;75.30;;;;;;5076435;28;20949;-41
2021/10/17 09:35:02;;;;;;;9.17;5.67;;;12.30;74.80;;;;;;5077244;28;20452;-41
2021/10/17 09:37:39;;;;;;;7.10;6.40;;;12.40;74.90;;;;;;5056734;28;20467;-42
2021/10/17 09:40:21;;;;;;;9.33;6.73;;;12.50;74.90;;;;;;5078315;28;20485;-42
2021/10/17 09:43:29;;;;;;;12.30;6.73;;;12.50;74.20;;;;;;5050765;28;20467;-42
2021/10/17 09:46:10;;;;;;;11.87;6.10;;;12.60;74.10;;;;;;5077932;28;20879;-42
2021/10/17 09:48:37;;;;;;;7.93;6.13;;;12.70;74.10;;;;;;5076939;28;20444;-42
2021/10/17 09:51:10;;;;;;;12.63;6.83;;;12.70;74.00;;;;;;5080280;28;20480;-42
2021/10/17 09:53:50;;;;;;;12.60;6.43;;;12.70;73.80;;;;;;5084249;28;20463;-42
2021/10/17 09:56:31;;;;;;;8.47;5.60;;;12.80;73.60;;;;;;5080383;28;20979;-42
2021/10/17 09:59:04;;;;;;;10.87;5.50;;;12.90;72.20;;;;;;5074336;28;20483;-42
2021/10/17 10:01:32;;;;;;;8.70;5.00;;;12.90;71.80;;;;;;5061212;28;20549;-42
2021/10/17 10:04:01;;;;;;;5.50;4.90;;;13.00;70.60;;;;;;5077491;28;20572;-42
2021/10/17 10:06:29;;;;;;;8.40;5.20;;;13.10;70.30;;;;;;5059308;28;20541;-42
2021/10/17 10:08:58;;;;;;;9.00;5.27;;;13.20;69.90;;;;;;5075431;28;20445;-42
2021/10/17 10:11:27;;;;;;;8.83;5.00;;;13.30;70.20;;;;;;5066733;28;20821;-42
2021/10/17 10:13:58;;;;;;;9.00;4.50;;;13.40;70.00;;;;;;5078497;28;20452;-42
2021/10/17 10:16:27;;;;;;;6.73;4.30;;;13.50;69.00;;;;;;5080007;28;20452;-42
2021/10/17 10:19:01;;;;;;;7.73;3.90;;;13.60;68.20;;;;;;5059276;28;21340;-42
2021/10/17 10:21:29;;;;;;;6.23;4.90;;;13.70;68.10;;;;;;5059460;28;20449;-42
2021/10/17 10:23:58;;;;;;;6.03;3.90;;;13.80;68.10;;;;;;5080600;28;20459;-42
2021/10/17 10:26:27;;;;;;;6.37;4.63;;;13.90;67.90;;;;;;5076770;28;20771;-42
2021/10/17 10:28:55;;;;;;;6.50;3.73;;;14.00;67.20;;;;;;5074506;28;20457;-42
2021/10/17 10:31:40;;;;;;;4.40;4.00;;;14.00;67.30;;;;;;5060660;28;20468;-42
2021/10/17 10:34:08;;;;;;;4.97;3.30;;;14.20;66.70;;;;;;5079006;28;20469;-42
2021/10/17 10:36:45;;;;;;;5.20;3.77;;;14.20;65.90;;;;;;5076617;28;20449;-42
2021/10/17 10:39:14;;;;;;;6.90;4.40;;;14.30;65.80;;;;;;5056444;28;20821;-42
2021/10/17 10:41:51;;;;;;;7.23;4.00;;;14.30;65.30;;;;;;5080087;28;20813;-42
2021/10/17 10:44:20;;;;;;;6.00;3.90;;;14.30;64.80;;;;;;5058870;28;20448;-42
2021/10/17 10:46:50;;;;;;;8.00;4.17;;;14.40;64.40;;;;;;5078738;28;20467;-42
2021/10/17 10:49:49;;;;;;;6.33;4.07;;;14.40;64.30;;;;;;5056957;28;20548;-42
2021/10/17 10:52:28;;;;;;;6.43;4.10;;;14.50;64.50;;;;;;5040890;28;20482;-42
2021/10/17 10:55:12;;;;;;;5.27;4.13;;;14.50;64.20;;;;;;5083622;28;20483;-43
2021/10/17 10:57:45;;;;;;;6.87;3.70;;;14.50;64.20;;;;;;5078640;28;20460;-42
2021/10/17 11:00:14;;;;;;;8.13;3.90;;;14.50;64.40;;;;;;5077611;28;20493;-42
2021/10/17 11:03:13;;;;;;;6.53;3.60;;;14.50;64.70;;;;;;5077989;28;20464;-43
2021/10/17 11:06:00;;;;;;;5.53;3.50;;;14.50;64.40;;;;;;5068183;28;20806;-43
2021/10/17 11:08:27;;;;;;;6.50;3.30;;;14.60;63.80;;;;;;5079011;28;20855;-42
2021/10/17 11:10:54;;;;;;;6.23;3.50;;;14.60;63.40;;;;;;5063111;28;20461;-42
2021/10/17 11:13:35;;;;;;;6.87;3.90;;;14.60;63.70;;;;;;5065265;28;21082;-43
2021/10/17 11:16:04;;;;;;;6.57;3.37;;;14.60;63.50;;;;;;5081257;28;20520;-42
2021/10/17 11:18:40;;;;;;;3.73;3.30;;;14.70;62.70;;;;;;5069209;28;20469;-43
2021/10/17 11:21:08;;;;;;;6.50;3.97;;;14.70;62.10;;;;;;5075894;28;20507;-42
2021/10/17 11:23:38;;;;;;;9.20;4.77;;;14.60;61.80;;;;;;5078644;28;21036;-42
2021/10/17 11:26:08;;;;;;;4.80;3.50;;;14.60;62.10;;;;;;5079196;28;20459;-42
2021/10/17 11:28:37;;;;;;;7.80;3.50;;;14.60;62.20;;;;;;5079599;28;20444;-43
2021/10/17 11:31:14;;;;;;;4.93;3.57;;;14.60;62.30;;;;;;5074482;28;20475;-42
2021/10/17 11:33:43;;;;;;;5.73;3.50;;;14.60;62.60;;;;;;5079134;28;20465;-42
2021/10/17 11:36:16;;;;;;;7.30;3.90;;;14.60;62.30;;;;;;5078803;28;20445;-42
2021/10/17 11:38:44;;;;;;;12.20;3.93;;;14.60;62.40;;;;;;5080304;28;20484;-42
2021/10/17 11:41:16;;;;;;;9.43;4.00;;;14.60;62.60;;;;;;5079545;28;20484;-42
2021/10/17 11:43:49;;;;;;;6.00;3.17;;;14.60;62.50;;;;;;5079839;28;20457;-43
2021/10/17 11:46:24;;;;;;;6.57;3.13;;;14.60;61.80;;;;;;5075388;28;20461;-42
2021/10/17 11:49:04;;;;;;;7.67;3.20;;;14.70;61.70;;;;;;5078527;28;20456;-42
2021/10/17 11:51:31;;;;;;;5.23;2.97;;;14.70;60.90;;;;;;5080345;28;20969;-42
2021/10/17 11:54:00;;;;;;;4.70;2.87;;;14.60;60.00;;;;;;5075503;28;20467;-42
2021/10/17 11:56:27;;;;;;;5.13;3.07;;;14.60;59.40;;;;;;5079275;28;20462;-42
2021/10/17 11:58:54;;;;;;;7.47;3.63;;;14.60;59.70;;;;;;5078535;28;20814;-42
2021/10/17 12:01:21;;;;;;;4.93;2.87;;;14.60;59.90;;;;;;5078276;28;21133;-43
2021/10/17 12:03:50;;;;;;;6.90;3.33;;;14.60;60.00;;;;;;5075799;28;20992;-43
2021/10/17 12:06:19;;;;;;;5.63;3.20;;;14.60;59.80;;;;;;5080124;28;20477;-43
2021/10/17 12:08:52;;;;;;;5.10;2.70;;;14.60;58.90;;;;;;5078845;28;20454;-42
2021/10/17 12:11:20;;;;;;;3.03;2.63;;;14.60;58.40;;;;;;5079586;28;20442;-43
2021/10/17 12:13:49;;;;;;;3.20;2.57;;;14.70;58.00;;;;;;5078620;28;20479;-42
2021/10/17 12:16:22;;;;;;;2.47;2.00;;;14.70;57.20;;;;;;5078788;28;20457;-42
2021/10/17 12:18:50;;;;;;;3.67;2.27;;;14.70;57.30;;;;;;5082600;28;20468;-42
2021/10/17 12:21:31;;;;;;;2.63;1.80;;;14.70;57.90;;;;;;5075413;28;20845;-42
2021/10/17 12:23:59;;;;;;;3.53;2.07;;;14.70;56.90;;;;;;5079871;28;20452;-42
2021/10/17 12:26:28;;;;;;;3.53;3.00;;;14.70;56.30;;;;;;5079744;28;20488;-42
2021/10/17 12:29:08;;;;;;;3.67;1.67;;;14.70;56.10;;;;;;5080425;28;20450;-42
2021/10/17 12:31:38;;;;;;;3.40;2.63;;;14.70;55.60;;;;;;5080514;28;20457;-43
2021/10/17 12:34:07;;;;;;;8.33;3.17;;;14.80;55.30;;;;;;5077477;28;20457;-42
2021/10/17 12:36:34;;;;;;;5.03;2.40;;;14.70;55.30;;;;;;5079559;28;20472;-43
2021/10/17 12:39:12;;;;;;;3.50;3.00;;;14.80;55.60;;;;;;5079578;28;20442;-42
2021/10/17 12:41:39;;;;;;;4.03;2.30;;;14.80;56.30;;;;;;5076433;28;20817;-42
2021/10/17 12:44:09;;;;;;;4.53;1.77;;;14.80;56.50;;;;;;5081399;28;20453;-42
2021/10/17 12:46:36;;;;;;;5.60;2.23;;;14.80;56.50;;;;;;5080147;28;20457;-43
2021/10/17 12:49:39;;;;;;;4.73;2.07;;;14.80;56.50;;;;;;5079597;28;20455;-42
2021/10/17 12:52:09;;;;;;;2.53;2.20;;;14.80;56.00;;;;;;5078196;28;20491;-42
2021/10/17 12:54:38;;;;;;;4.00;2.60;;;14.90;55.90;;;;;;5081756;28;20490;-42
2021/10/17 12:57:07;;;;;;;6.60;2.60;;;14.90;56.50;;;;;;5081529;28;20464;-42
2021/10/17 12:59:36;;;;;;;4.63;2.77;;;14.90;56.80;;;;;;5083192;28;20458;-42
2021/10/17 13:02:15;;;;;;;4.87;3.03;;;14.90;56.50;;;;;;5073757;28;20464;-42